sensor_id;sensor_type;location;lat;lon;timestamp;pressure;altitude;pressure_sealevel;temperature;humidity
43488;BME280;29078;41.932;25.554;2024-03-29T00:02:04;99230.34;;;16.99;53.87
43488;BME280;29078;41.932;25.554;2024-03-29T00:04:30;99231.97;;;17.00;52.75
43488;BME280;29078;41.932;25.554;2024-03-29T00:06:55;99242.28;;;16.96;53.33
43488;BME280;29078;41.932;25.554;2024-03-29T00:09:20;99257.09;;;16.92;53.14
43488;BME280;29078;41.932;25.554;2024-03-29T00:11:45;99249.78;;;16.88;53.63
43488;BME280;29078;41.932;25.554;2024-03-29T00:14:11;99250.00;;;16.86;53.33
43488;BME280;29078;41.932;25.554;2024-03-29T00:16:36;99246.28;;;16.87;53.86
43488;BME280;29078;41.932;25.554;2024-03-29T00:19:01;99249.41;;;16.84;53.49
43488;BME280;29078;41.932;25.554;2024-03-29T00:21:26;99249.06;;;16.80;53.71
43488;BME280;29078;41.932;25.554;2024-03-29T00:23:52;99246.84;;;16.77;53.87
43488;BME280;29078;41.932;25.554;2024-03-29T00:26:17;99248.09;;;16.75;53.78
43488;BME280;29078;41.932;25.554;2024-03-29T00:28:42;99253.06;;;16.71;53.40
43488;BME280;29078;41.932;25.554;2024-03-29T00:31:07;99243.91;;;16.67;54.01
43488;BME280;29078;41.932;25.554;2024-03-29T00:33:33;99243.50;;;16.64;53.79
43488;BME280;29078;41.932;25.554;2024-03-29T00:35:58;99247.44;;;16.61;53.58
43488;BME280;29078;41.932;25.554;2024-03-29T00:38:23;99255.44;;;16.61;53.67
43488;BME280;29078;41.932;25.554;2024-03-29T00:40:49;99248.69;;;16.59;53.35
43488;BME280;29078;41.932;25.554;2024-03-29T00:43:14;99258.97;;;16.55;53.67
43488;BME280;29078;41.932;25.554;2024-03-29T00:45:40;99255.72;;;16.53;54.84
43488;BME280;29078;41.932;25.554;2024-03-29T00:48:05;99253.50;;;16.50;53.45
43488;BME280;29078;41.932;25.554;2024-03-29T00:50:30;99252.31;;;16.46;53.85
43488;BME280;29078;41.932;25.554;2024-03-29T00:52:56;99253.59;;;16.43;54.05
43488;BME280;29078;41.932;25.554;2024-03-29T00:55:21;99259.81;;;16.37;54.67
43488;BME280;29078;41.932;25.554;2024-03-29T00:57:46;99252.44;;;16.33;54.06
43488;BME280;29078;41.932;25.554;2024-03-29T01:00:11;99253.34;;;16.27;54.55
43488;BME280;29078;41.932;25.554;2024-03-29T01:02:37;99261.19;;;16.21;54.69
43488;BME280;29078;41.932;25.554;2024-03-29T01:05:02;99261.19;;;16.21;54.21
43488;BME280;29078;41.932;25.554;2024-03-29T01:07:28;99257.13;;;16.19;54.57
43488;BME280;29078;41.932;25.554;2024-03-29T01:09:53;99251.19;;;16.17;53.93
43488;BME280;29078;41.932;25.554;2024-03-29T01:12:18;99254.28;;;16.14;53.93
43488;BME280;29078;41.932;25.554;2024-03-29T01:14:44;99256.44;;;16.05;55.20
43488;BME280;29078;41.932;25.554;2024-03-29T01:17:10;99255.47;;;16.00;54.69
43488;BME280;29078;41.932;25.554;2024-03-29T01:19:35;99248.72;;;15.97;54.16
43488;BME280;29078;41.932;25.554;2024-03-29T01:22:00;99253.97;;;15.85;54.77
43488;BME280;29078;41.932;25.554;2024-03-29T01:24:25;99259.41;;;15.72;54.96
43488;BME280;29078;41.932;25.554;2024-03-29T01:26:50;99257.03;;;15.64;54.95
43488;BME280;29078;41.932;25.554;2024-03-29T01:29:16;99269.78;;;15.49;55.00
43488;BME280;29078;41.932;25.554;2024-03-29T01:31:42;99272.44;;;15.49;55.07
43488;BME280;29078;41.932;25.554;2024-03-29T01:34:07;99273.03;;;15.51;54.31
43488;BME280;29078;41.932;25.554;2024-03-29T01:36:32;99283.69;;;15.51;54.93
43488;BME280;29078;41.932;25.554;2024-03-29T01:38:57;99279.16;;;15.51;54.52
43488;BME280;29078;41.932;25.554;2024-03-29T01:41:23;99292.47;;;15.51;54.37
43488;BME280;29078;41.932;25.554;2024-03-29T01:43:50;99284.28;;;15.53;54.52
43488;BME280;29078;41.932;25.554;2024-03-29T01:46:16;99287.16;;;15.51;54.72
43488;BME280;29078;41.932;25.554;2024-03-29T01:48:43;99288.84;;;15.46;54.67
43488;BME280;29078;41.932;25.554;2024-03-29T01:51:09;99291.72;;;15.44;54.51
43488;BME280;29078;41.932;25.554;2024-03-29T01:53:36;99287.03;;;15.40;55.34
43488;BME280;29078;41.932;25.554;2024-03-29T01:56:01;99278.28;;;15.33;55.08
43488;BME280;29078;41.932;25.554;2024-03-29T01:58:27;99279.31;;;15.32;54.79
43488;BME280;29078;41.932;25.554;2024-03-29T02:00:57;99279.16;;;15.26;54.66
43488;BME280;29078;41.932;25.554;2024-03-29T02:03:22;99283.47;;;15.21;55.07
43488;BME280;29078;41.932;25.554;2024-03-29T02:05:48;99283.91;;;15.18;54.71
43488;BME280;29078;41.932;25.554;2024-03-29T02:08:14;99288.88;;;15.08;55.64
43488;BME280;29078;41.932;25.554;2024-03-29T02:10:39;99283.81;;;15.00;55.53
43488;BME280;29078;41.932;25.554;2024-03-29T02:13:04;99293.03;;;14.97;55.72
43488;BME280;29078;41.932;25.554;2024-03-29T02:15:30;99289.94;;;15.00;54.85
43488;BME280;29078;41.932;25.554;2024-03-29T02:17:56;99297.31;;;14.98;55.26
43488;BME280;29078;41.932;25.554;2024-03-29T02:20:21;99297.31;;;14.98;55.13
43488;BME280;29078;41.932;25.554;2024-03-29T02:22:54;99309.59;;;14.99;55.21
43488;BME280;29078;41.932;25.554;2024-03-29T02:25:20;99300.78;;;14.99;55.26
43488;BME280;29078;41.932;25.554;2024-03-29T02:27:45;99301.00;;;14.97;55.32
43488;BME280;29078;41.932;25.554;2024-03-29T02:30:13;99311.22;;;15.00;54.64
43488;BME280;29078;41.932;25.554;2024-03-29T02:32:39;99313.25;;;14.98;54.62
43488;BME280;29078;41.932;25.554;2024-03-29T02:35:05;99325.13;;;14.96;54.64
43488;BME280;29078;41.932;25.554;2024-03-29T02:37:30;99326.81;;;14.90;54.67
43488;BME280;29078;41.932;25.554;2024-03-29T02:39:55;99323.94;;;14.85;55.02
43488;BME280;29078;41.932;25.554;2024-03-29T02:42:20;99326.63;;;14.78;55.47
43488;BME280;29078;41.932;25.554;2024-03-29T02:44:46;99325.00;;;14.71;55.24
43488;BME280;29078;41.932;25.554;2024-03-29T02:47:11;99326.25;;;14.68;55.49
43488;BME280;29078;41.932;25.554;2024-03-29T02:49:36;99327.06;;;14.69;55.35
43488;BME280;29078;41.932;25.554;2024-03-29T02:52:02;99336.44;;;14.71;54.98
43488;BME280;29078;41.932;25.554;2024-03-29T02:54:27;99331.75;;;14.73;54.98
43488;BME280;29078;41.932;25.554;2024-03-29T02:56:52;99339.31;;;14.70;55.38
43488;BME280;29078;41.932;25.554;2024-03-29T02:59:17;99333.78;;;14.71;55.18
43488;BME280;29078;41.932;25.554;2024-03-29T03:01:43;99347.91;;;14.72;54.72
43488;BME280;29078;41.932;25.554;2024-03-29T03:04:08;99349.34;;;14.68;55.14
43488;BME280;29078;41.932;25.554;2024-03-29T03:06:33;99360.59;;;14.70;55.02
43488;BME280;29078;41.932;25.554;2024-03-29T03:08:58;99367.13;;;14.67;55.09
43488;BME280;29078;41.932;25.554;2024-03-29T03:11:42;99367.34;;;14.66;54.85
43488;BME280;29078;41.932;25.554;2024-03-29T03:14:08;99368.16;;;14.59;55.19
43488;BME280;29078;41.932;25.554;2024-03-29T03:16:33;99379.00;;;14.58;54.96
43488;BME280;29078;41.932;25.554;2024-03-29T03:18:58;99390.44;;;14.58;54.63
43488;BME280;29078;41.932;25.554;2024-03-29T03:21:24;99395.16;;;14.56;55.20
43488;BME280;29078;41.932;25.554;2024-03-29T03:23:50;99389.03;;;14.56;54.98
43488;BME280;29078;41.932;25.554;2024-03-29T03:26:15;99390.69;;;14.44;55.41
43488;BME280;29078;41.932;25.554;2024-03-29T03:28:40;99391.28;;;14.32;55.61
43488;BME280;29078;41.932;25.554;2024-03-29T03:31:05;99381.88;;;14.37;55.24
43488;BME280;29078;41.932;25.554;2024-03-29T03:33:32;99392.69;;;14.42;55.20
43488;BME280;29078;41.932;25.554;2024-03-29T03:35:57;99388.84;;;14.44;55.25
43488;BME280;29078;41.932;25.554;2024-03-29T03:38:22;99406.22;;;14.47;55.19
43488;BME280;29078;41.932;25.554;2024-03-29T03:40:48;99422.97;;;14.47;54.96
43488;BME280;29078;41.932;25.554;2024-03-29T03:43:13;99421.13;;;14.48;54.79
43488;BME280;29078;41.932;25.554;2024-03-29T03:45:39;99427.22;;;14.42;55.62
43488;BME280;29078;41.932;25.554;2024-03-29T03:48:05;99434.78;;;14.38;55.29
43488;BME280;29078;41.932;25.554;2024-03-29T03:50:30;99442.97;;;14.37;55.42
43488;BME280;29078;41.932;25.554;2024-03-29T03:52:56;99443.78;;;14.37;55.31
43488;BME280;29078;41.932;25.554;2024-03-29T03:55:21;99443.16;;;14.35;55.73
43488;BME280;29078;41.932;25.554;2024-03-29T03:57:46;99446.84;;;14.34;56.19
43488;BME280;29078;41.932;25.554;2024-03-29T04:00:12;99441.75;;;14.32;55.63
43488;BME280;29078;41.932;25.554;2024-03-29T04:02:37;99447.66;;;14.35;55.33
43488;BME280;29078;41.932;25.554;2024-03-29T04:05:02;99445.81;;;14.35;55.40
43488;BME280;29078;41.932;25.554;2024-03-29T04:07:28;99459.50;;;14.39;55.08
43488;BME280;29078;41.932;25.554;2024-03-29T04:09:53;99467.06;;;14.42;54.81
43488;BME280;29078;41.932;25.554;2024-03-29T04:12:18;99468.28;;;14.39;55.41
43488;BME280;29078;41.932;25.554;2024-03-29T04:14:44;99476.25;;;14.39;55.25
43488;BME280;29078;41.932;25.554;2024-03-29T04:17:09;99482.59;;;14.38;55.10
43488;BME280;29078;41.932;25.554;2024-03-29T04:19:34;99486.47;;;14.36;54.72
43488;BME280;29078;41.932;25.554;2024-03-29T04:21:59;99485.06;;;14.33;55.39
43488;BME280;29078;41.932;25.554;2024-03-29T04:24:25;99478.91;;;14.32;55.35
43488;BME280;29078;41.932;25.554;2024-03-29T04:26:50;99495.66;;;14.26;55.53
43488;BME280;29078;41.932;25.554;2024-03-29T04:29:16;99508.53;;;14.29;55.06
43488;BME280;29078;41.932;25.554;2024-03-29T04:31:41;99505.47;;;14.26;54.80
43488;BME280;29078;41.932;25.554;2024-03-29T04:34:06;99516.09;;;14.26;55.15
43488;BME280;29078;41.932;25.554;2024-03-29T04:36:32;99506.91;;;14.28;54.74
43488;BME280;29078;41.932;25.554;2024-03-29T04:38:57;99513.25;;;14.27;54.98
43488;BME280;29078;41.932;25.554;2024-03-29T04:41:22;99517.53;;;14.22;55.06
43488;BME280;29078;41.932;25.554;2024-03-29T04:43:47;99517.72;;;14.20;54.79
43488;BME280;29078;41.932;25.554;2024-03-29T04:46:13;99525.88;;;14.19;55.42
43488;BME280;29078;41.932;25.554;2024-03-29T04:48:42;99520.38;;;14.20;55.09
43488;BME280;29078;41.932;25.554;2024-03-29T04:51:11;99520.78;;;14.24;54.89
43488;BME280;29078;41.932;25.554;2024-03-29T04:53:36;99515.69;;;14.29;54.88
43488;BME280;29078;41.932;25.554;2024-03-29T04:56:02;99522.44;;;14.31;54.78
43488;BME280;29078;41.932;25.554;2024-03-29T04:58:28;99514.25;;;14.33;55.08
43488;BME280;29078;41.932;25.554;2024-03-29T05:00:53;99515.91;;;14.34;54.56
43488;BME280;29078;41.932;25.554;2024-03-29T05:03:19;99512.03;;;14.37;54.63
43488;BME280;29078;41.932;25.554;2024-03-29T05:05:45;99515.72;;;14.42;54.49
43488;BME280;29078;41.932;25.554;2024-03-29T05:08:10;99513.50;;;14.46;54.17
43488;BME280;29078;41.932;25.554;2024-03-29T05:10:36;99508.78;;;14.48;54.31
43488;BME280;29078;41.932;25.554;2024-03-29T05:13:01;99515.31;;;14.52;53.85
43488;BME280;29078;41.932;25.554;2024-03-29T05:15:27;99526.56;;;14.60;53.65
43488;BME280;29078;41.932;25.554;2024-03-29T05:17:52;99536.38;;;14.67;53.48
43488;BME280;29078;41.932;25.554;2024-03-29T05:20:18;99544.56;;;14.72;53.28
43488;BME280;29078;41.932;25.554;2024-03-29T05:22:43;99538.84;;;14.75;53.38
43488;BME280;29078;41.932;25.554;2024-03-29T05:25:09;99550.91;;;14.77;52.70
43488;BME280;29078;41.932;25.554;2024-03-29T05:27:34;99558.25;;;14.82;52.79
43488;BME280;29078;41.932;25.554;2024-03-29T05:29:59;99557.66;;;14.86;52.61
43488;BME280;29078;41.932;25.554;2024-03-29T05:32:24;99559.31;;;14.87;52.82
43488;BME280;29078;41.932;25.554;2024-03-29T05:34:50;99558.69;;;14.92;52.35
43488;BME280;29078;41.932;25.554;2024-03-29T05:37:15;99549.88;;;14.98;52.50
43488;BME280;29078;41.932;25.554;2024-03-29T05:39:42;99558.28;;;15.02;52.06
43488;BME280;29078;41.932;25.554;2024-03-29T05:42:08;99567.88;;;15.09;51.87
43488;BME280;29078;41.932;25.554;2024-03-29T05:44:34;99569.09;;;15.20;51.59
43488;BME280;29078;41.932;25.554;2024-03-29T05:47:00;99564.78;;;15.25;51.04
43488;BME280;29078;41.932;25.554;2024-03-29T05:49:25;99565.97;;;15.36;50.73
43488;BME280;29078;41.932;25.554;2024-03-29T05:51:51;99568.41;;;15.44;50.42
43488;BME280;29078;41.932;25.554;2024-03-29T05:54:17;99569.81;;;15.53;50.23
43488;BME280;29078;41.932;25.554;2024-03-29T05:56:42;99576.63;;;15.63;50.05
43488;BME280;29078;41.932;25.554;2024-03-29T05:59:07;99572.91;;;15.70;49.85
43488;BME280;29078;41.932;25.554;2024-03-29T06:01:33;99570.00;;;15.78;49.35
43488;BME280;29078;41.932;25.554;2024-03-29T06:03:58;99581.44;;;15.85;49.52
43488;BME280;29078;41.932;25.554;2024-03-29T06:06:29;99585.75;;;15.86;47.50
43488;BME280;29078;41.932;25.554;2024-03-29T06:08:54;99590.84;;;15.88;47.59
43488;BME280;29078;41.932;25.554;2024-03-29T06:11:20;99606.19;;;15.93;47.12
43488;BME280;29078;41.932;25.554;2024-03-29T06:13:45;99610.88;;;15.97;47.40
43488;BME280;29078;41.932;25.554;2024-03-29T06:16:24;99628.94;;;15.88;45.36
43488;BME280;29078;41.932;25.554;2024-03-29T06:19:08;99619.13;;;15.82;47.43
43488;BME280;29078;41.932;25.554;2024-03-29T06:21:33;99637.75;;;15.89;46.62
43488;BME280;29078;41.932;25.554;2024-03-29T06:24:04;99632.78;;;15.99;47.16
43488;BME280;29078;41.932;25.554;2024-03-29T06:26:30;99634.41;;;16.07;45.99
43488;BME280;29078;41.932;25.554;2024-03-29T06:28:55;99636.00;;;16.14;46.77
43488;BME280;29078;41.932;25.554;2024-03-29T06:31:20;99637.41;;;16.24;47.13
43488;BME280;29078;41.932;25.554;2024-03-29T06:33:46;99630.19;;;16.31;45.92
43488;BME280;29078;41.932;25.554;2024-03-29T06:36:11;99635.72;;;16.36;45.89
43488;BME280;29078;41.932;25.554;2024-03-29T06:38:36;99626.88;;;16.42;46.08
43488;BME280;29078;41.932;25.554;2024-03-29T06:41:01;99637.50;;;16.48;46.37
43488;BME280;29078;41.932;25.554;2024-03-29T06:43:28;99638.50;;;16.54;46.61
43488;BME280;29078;41.932;25.554;2024-03-29T06:45:53;99637.63;;;16.60;45.02
43488;BME280;29078;41.932;25.554;2024-03-29T06:48:19;99644.59;;;16.68;43.30
43488;BME280;29078;41.932;25.554;2024-03-29T06:50:44;99651.09;;;16.78;45.84
43488;BME280;29078;41.932;25.554;2024-03-29T06:53:10;99651.22;;;16.90;44.69
43488;BME280;29078;41.932;25.554;2024-03-29T06:55:35;99653.00;;;16.96;43.79
43488;BME280;29078;41.932;25.554;2024-03-29T06:58:02;99666.28;;;17.03;44.01
43488;BME280;29078;41.932;25.554;2024-03-29T07:00:27;99658.28;;;17.09;44.25
43488;BME280;29078;41.932;25.554;2024-03-29T07:02:52;99664.38;;;17.17;44.27
43488;BME280;29078;41.932;25.554;2024-03-29T07:05:18;99665.50;;;17.27;44.84
43488;BME280;29078;41.932;25.554;2024-03-29T07:07:43;99673.25;;;17.35;43.76
43488;BME280;29078;41.932;25.554;2024-03-29T07:10:11;99668.59;;;17.49;43.90
43488;BME280;29078;41.932;25.554;2024-03-29T07:12:36;99668.47;;;17.62;44.19
43488;BME280;29078;41.932;25.554;2024-03-29T07:15:01;99672.88;;;17.75;43.37
43488;BME280;29078;41.932;25.554;2024-03-29T07:17:26;99672.41;;;17.85;43.40
43488;BME280;29078;41.932;25.554;2024-03-29T07:19:52;99667.38;;;17.95;43.62
43488;BME280;29078;41.932;25.554;2024-03-29T07:22:17;99675.91;;;18.03;43.84
43488;BME280;29078;41.932;25.554;2024-03-29T07:24:42;99684.78;;;18.16;43.15
43488;BME280;29078;41.932;25.554;2024-03-29T07:27:08;99688.34;;;18.28;43.45
43488;BME280;29078;41.932;25.554;2024-03-29T07:29:33;99683.50;;;18.36;40.63
43488;BME280;29078;41.932;25.554;2024-03-29T07:31:59;99686.91;;;18.43;41.51
43488;BME280;29078;41.932;25.554;2024-03-29T07:34:25;99680.81;;;18.55;41.21
43488;BME280;29078;41.932;25.554;2024-03-29T07:36:50;99688.13;;;18.66;42.51
43488;BME280;29078;41.932;25.554;2024-03-29T07:39:16;99681.63;;;18.73;42.02
43488;BME280;29078;41.932;25.554;2024-03-29T07:41:41;99674.91;;;18.83;40.36
43488;BME280;29078;41.932;25.554;2024-03-29T07:44:06;99682.84;;;18.89;42.43
43488;BME280;29078;41.932;25.554;2024-03-29T07:46:33;99692.63;;;18.95;41.57
43488;BME280;29078;41.932;25.554;2024-03-29T07:48:59;99685.31;;;19.02;41.54
43488;BME280;29078;41.932;25.554;2024-03-29T07:51:24;99681.47;;;19.10;40.48
43488;BME280;29078;41.932;25.554;2024-03-29T07:53:50;99688.94;;;19.20;39.73
43488;BME280;29078;41.932;25.554;2024-03-29T07:56:15;99688.38;;;19.29;40.67
43488;BME280;29078;41.932;25.554;2024-03-29T07:58:41;99692.84;;;19.35;38.85
43488;BME280;29078;41.932;25.554;2024-03-29T08:01:06;99687.97;;;19.44;40.13
43488;BME280;29078;41.932;25.554;2024-03-29T08:03:32;99694.97;;;19.57;40.58
43488;BME280;29078;41.932;25.554;2024-03-29T08:05:59;99697.88;;;19.67;38.36
43488;BME280;29078;41.932;25.554;2024-03-29T08:08:25;99702.66;;;19.77;36.82
43488;BME280;29078;41.932;25.554;2024-03-29T08:10:52;99695.91;;;19.86;39.06
43488;BME280;29078;41.932;25.554;2024-03-29T08:13:17;99683.53;;;19.96;37.17
43488;BME280;29078;41.932;25.554;2024-03-29T08:15:45;99685.41;;;20.08;38.68
43488;BME280;29078;41.932;25.554;2024-03-29T08:18:10;99690.41;;;20.16;36.90
43488;BME280;29078;41.932;25.554;2024-03-29T08:20:36;99694.91;;;20.27;37.86
43488;BME280;29078;41.932;25.554;2024-03-29T08:23:01;99694.53;;;20.35;36.77
43488;BME280;29078;41.932;25.554;2024-03-29T08:25:26;99694.53;;;20.47;36.95
43488;BME280;29078;41.932;25.554;2024-03-29T08:27:52;99702.28;;;20.60;36.69
43488;BME280;29078;41.932;25.554;2024-03-29T08:30:23;99695.25;;;20.71;35.96
43488;BME280;29078;41.932;25.554;2024-03-29T08:32:48;99704.91;;;20.83;36.57
43488;BME280;29078;41.932;25.554;2024-03-29T08:35:14;99702.97;;;20.96;36.42
43488;BME280;29078;41.932;25.554;2024-03-29T08:37:39;99703.72;;;21.08;37.12
43488;BME280;29078;41.932;25.554;2024-03-29T08:40:05;99699.09;;;21.20;37.08
43488;BME280;29078;41.932;25.554;2024-03-29T08:42:30;99695.28;;;21.33;35.58
43488;BME280;29078;41.932;25.554;2024-03-29T08:44:58;99694.88;;;21.41;36.28
43488;BME280;29078;41.932;25.554;2024-03-29T08:47:26;99699.91;;;21.54;36.13
43488;BME280;29078;41.932;25.554;2024-03-29T08:49:51;99696.34;;;21.65;35.80
43488;BME280;29078;41.932;25.554;2024-03-29T08:52:16;99693.13;;;21.85;34.92
43488;BME280;29078;41.932;25.554;2024-03-29T08:54:42;99696.38;;;22.04;34.82
43488;BME280;29078;41.932;25.554;2024-03-29T08:57:08;99695.50;;;22.20;34.81
43488;BME280;29078;41.932;25.554;2024-03-29T08:59:33;99695.72;;;22.35;35.36
43488;BME280;29078;41.932;25.554;2024-03-29T09:02:03;99691.63;;;22.55;34.82
43488;BME280;29078;41.932;25.554;2024-03-29T09:04:28;99698.00;;;22.70;32.82
43488;BME280;29078;41.932;25.554;2024-03-29T09:06:54;99702.50;;;22.87;33.17
43488;BME280;29078;41.932;25.554;2024-03-29T09:09:19;99697.25;;;23.02;33.16
43488;BME280;29078;41.932;25.554;2024-03-29T09:11:44;99702.03;;;23.22;34.62
43488;BME280;29078;41.932;25.554;2024-03-29T09:14:09;99702.44;;;23.40;33.24
43488;BME280;29078;41.932;25.554;2024-03-29T09:16:35;99695.50;;;23.50;31.56
43488;BME280;29078;41.932;25.554;2024-03-29T09:19:00;99695.59;;;23.60;29.19
43488;BME280;29078;41.932;25.554;2024-03-29T09:21:25;99693.78;;;23.70;31.85
43488;BME280;29078;41.932;25.554;2024-03-29T09:23:51;99686.06;;;23.84;31.55
43488;BME280;29078;41.932;25.554;2024-03-29T09:26:18;99683.19;;;24.01;31.57
43488;BME280;29078;41.932;25.554;2024-03-29T09:28:43;99697.78;;;24.10;32.06
43488;BME280;29078;41.932;25.554;2024-03-29T09:31:08;99694.94;;;24.32;31.90
43488;BME280;29078;41.932;25.554;2024-03-29T09:33:34;99688.25;;;24.45;29.87
43488;BME280;29078;41.932;25.554;2024-03-29T09:35:59;99689.63;;;24.52;31.49
43488;BME280;29078;41.932;25.554;2024-03-29T09:38:25;99688.31;;;24.55;30.57
43488;BME280;29078;41.932;25.554;2024-03-29T09:40:53;99686.44;;;24.70;30.51
43488;BME280;29078;41.932;25.554;2024-03-29T09:43:22;99678.91;;;24.93;31.60
43488;BME280;29078;41.932;25.554;2024-03-29T09:45:49;99681.66;;;25.18;30.14
43488;BME280;29078;41.932;25.554;2024-03-29T09:48:14;99673.53;;;25.23;28.42
43488;BME280;29078;41.932;25.554;2024-03-29T09:50:40;99674.66;;;25.27;29.17
43488;BME280;29078;41.932;25.554;2024-03-29T09:53:05;99672.72;;;25.53;31.48
43488;BME280;29078;41.932;25.554;2024-03-29T09:55:30;99671.66;;;25.70;30.04
43488;BME280;29078;41.932;25.554;2024-03-29T09:57:56;99664.56;;;25.89;30.68
43488;BME280;29078;41.932;25.554;2024-03-29T10:00:22;99663.72;;;25.98;28.87
43488;BME280;29078;41.932;25.554;2024-03-29T10:02:48;99663.09;;;26.22;28.39
43488;BME280;29078;41.932;25.554;2024-03-29T10:05:14;99657.31;;;26.44;26.12
43488;BME280;29078;41.932;25.554;2024-03-29T10:07:40;99651.53;;;26.60;25.23
43488;BME280;29078;41.932;25.554;2024-03-29T10:10:06;99647.38;;;26.73;28.50
43488;BME280;29078;41.932;25.554;2024-03-29T10:12:31;99648.19;;;26.79;28.76
43488;BME280;29078;41.932;25.554;2024-03-29T10:14:56;99642.97;;;26.87;27.06
43488;BME280;29078;41.932;25.554;2024-03-29T10:17:34;99640.19;;;27.03;25.59
43488;BME280;29078;41.932;25.554;2024-03-29T10:20:02;99647.03;;;27.24;27.22
43488;BME280;29078;41.932;25.554;2024-03-29T10:22:28;99642.22;;;27.45;27.47
43488;BME280;29078;41.932;25.554;2024-03-29T10:24:54;99648.66;;;27.54;27.34
43488;BME280;29078;41.932;25.554;2024-03-29T10:27:19;99644.28;;;27.58;24.99
43488;BME280;29078;41.932;25.554;2024-03-29T10:29:44;99645.88;;;27.64;28.89
43488;BME280;29078;41.932;25.554;2024-03-29T10:32:09;99640.63;;;27.73;26.92
43488;BME280;29078;41.932;25.554;2024-03-29T10:34:34;99641.03;;;27.85;26.09
43488;BME280;29078;41.932;25.554;2024-03-29T10:37:02;99634.91;;;27.98;23.49
43488;BME280;29078;41.932;25.554;2024-03-29T10:39:31;99636.75;;;28.03;25.36
43488;BME280;29078;41.932;25.554;2024-03-29T10:41:58;99628.09;;;28.20;25.61
43488;BME280;29078;41.932;25.554;2024-03-29T10:44:24;99627.16;;;28.34;26.31
43488;BME280;29078;41.932;25.554;2024-03-29T10:46:50;99628.84;;;28.49;22.90
43488;BME280;29078;41.932;25.554;2024-03-29T10:49:17;99626.09;;;28.68;26.52
43488;BME280;29078;41.932;25.554;2024-03-29T10:51:43;99613.31;;;28.87;27.69
43488;BME280;29078;41.932;25.554;2024-03-29T10:54:09;99606.84;;;29.02;25.27
43488;BME280;29078;41.932;25.554;2024-03-29T10:56:37;99607.41;;;29.18;25.29
43488;BME280;29078;41.932;25.554;2024-03-29T10:59:06;99600.47;;;29.25;22.58
43488;BME280;29078;41.932;25.554;2024-03-29T11:01:34;99596.72;;;29.21;25.84
43488;BME280;29078;41.932;25.554;2024-03-29T11:04:01;99603.47;;;29.24;25.16
43488;BME280;29078;41.932;25.554;2024-03-29T11:06:30;99597.53;;;29.22;25.71
43488;BME280;29078;41.932;25.554;2024-03-29T11:08:57;99594.09;;;29.16;24.30
43488;BME280;29078;41.932;25.554;2024-03-29T11:11:24;99599.13;;;29.23;26.28
43488;BME280;29078;41.932;25.554;2024-03-29T11:14:01;99584.03;;;29.30;22.33
43488;BME280;29078;41.932;25.554;2024-03-29T11:16:28;99583.47;;;29.47;23.95
43488;BME280;29078;41.932;25.554;2024-03-29T11:18:53;99575.00;;;29.62;23.15
43488;BME280;29078;41.932;25.554;2024-03-29T11:21:18;99576.94;;;29.76;21.62
43488;BME280;29078;41.932;25.554;2024-03-29T11:23:48;99566.75;;;29.81;20.29
43488;BME280;29078;41.932;25.554;2024-03-29T11:26:14;99576.53;;;29.68;22.97
43488;BME280;29078;41.932;25.554;2024-03-29T11:28:39;99567.75;;;29.71;23.30
43488;BME280;29078;41.932;25.554;2024-03-29T11:31:08;99567.38;;;29.78;21.73
43488;BME280;29078;41.932;25.554;2024-03-29T11:36:11;99567.03;;;30.07;22.32
43488;BME280;29078;41.932;25.554;2024-03-29T11:38:37;99561.88;;;30.19;21.52
43488;BME280;29078;41.932;25.554;2024-03-29T11:41:21;99564.16;;;30.26;23.54
43488;BME280;29078;41.932;25.554;2024-03-29T11:43:50;99560.59;;;30.39;22.89
43488;BME280;29078;41.932;25.554;2024-03-29T11:46:15;99570.13;;;30.28;25.05
43488;BME280;29078;41.932;25.554;2024-03-29T11:48:41;99565.47;;;30.28;21.12
43488;BME280;29078;41.932;25.554;2024-03-29T11:51:07;99564.25;;;30.34;23.97
43488;BME280;29078;41.932;25.554;2024-03-29T11:53:36;99566.03;;;30.39;23.30
43488;BME280;29078;41.932;25.554;2024-03-29T11:56:02;99563.50;;;30.43;25.16
43488;BME280;29078;41.932;25.554;2024-03-29T11:58:28;99561.38;;;30.17;24.42
43488;BME280;29078;41.932;25.554;2024-03-29T12:00:54;99561.44;;;30.26;21.83
43488;BME280;29078;41.932;25.554;2024-03-29T12:03:21;99566.91;;;30.26;23.15
43488;BME280;29078;41.932;25.554;2024-03-29T12:05:47;99566.91;;;30.26;23.85
43488;BME280;29078;41.932;25.554;2024-03-29T12:08:13;99563.09;;;30.13;24.63
43488;BME280;29078;41.932;25.554;2024-03-29T12:10:39;99569.84;;;30.16;23.48
43488;BME280;29078;41.932;25.554;2024-03-29T12:13:04;99566.03;;;30.03;20.80
43488;BME280;29078;41.932;25.554;2024-03-29T12:15:30;99567.06;;;29.80;21.17
43488;BME280;29078;41.932;25.554;2024-03-29T12:17:57;99565.03;;;29.71;23.22
43488;BME280;29078;41.932;25.554;2024-03-29T12:20:22;99565.75;;;29.50;24.94
43488;BME280;29078;41.932;25.554;2024-03-29T12:22:47;99555.63;;;29.36;21.94
43488;BME280;29078;41.932;25.554;2024-03-29T12:25:13;99555.34;;;29.24;25.66
43488;BME280;29078;41.932;25.554;2024-03-29T12:27:38;99546.84;;;29.12;24.99
43488;BME280;29078;41.932;25.554;2024-03-29T12:30:04;99550.13;;;28.95;22.55
43488;BME280;29078;41.932;25.554;2024-03-29T12:32:30;99546.25;;;28.83;23.31
43488;BME280;29078;41.932;25.554;2024-03-29T12:35:07;99543.63;;;28.77;21.45
43488;BME280;29078;41.932;25.554;2024-03-29T12:37:32;99540.97;;;28.72;24.04
43488;BME280;29078;41.932;25.554;2024-03-29T12:39:59;99540.78;;;28.69;25.62
43488;BME280;29078;41.932;25.554;2024-03-29T12:42:24;99537.03;;;28.65;24.59
43488;BME280;29078;41.932;25.554;2024-03-29T12:44:49;99539.03;;;28.59;25.45
43488;BME280;29078;41.932;25.554;2024-03-29T12:47:15;99535.88;;;28.52;25.52